createdAt,value
2018-05-03T00:00:59.696Z,98.20
2018-05-03T00:03:27.662Z,98.50
2018-05-03T00:05:55.528Z,98.80
2018-05-03T00:08:23.398Z,99.90
2018-05-03T00:10:51.361Z,99.90
2018-05-03T00:13:19.227Z,99.90
2018-05-03T00:15:47.094Z,99.90
2018-05-03T00:18:15.038Z,99.90
2018-05-03T00:20:43.031Z,99.90
2018-05-03T00:23:11.106Z,99.90
2018-05-03T00:25:38.969Z,99.90
2018-05-03T00:28:07.552Z,99.90
2018-05-03T00:30:35.417Z,99.90
2018-05-03T00:33:04.173Z,99.90
2018-05-03T00:35:32.071Z,99.90
2018-05-03T00:37:59.937Z,99.90
2018-05-03T00:40:27.804Z,99.90
2018-05-03T00:42:55.670Z,99.90
2018-05-03T00:45:23.535Z,99.90
2018-05-03T00:47:51.503Z,99.90
2018-05-03T00:50:19.472Z,99.90
2018-05-03T00:52:47.348Z,99.90
2018-05-03T00:55:15.207Z,99.90
2018-05-03T00:57:43.070Z,99.90
2018-05-03T01:00:11.043Z,99.90
2018-05-03T01:02:38.907Z,99.90
2018-05-03T01:05:07.590Z,99.90
2018-05-03T01:07:35.463Z,99.90
2018-05-03T01:10:03.322Z,99.90
2018-05-03T01:12:32.007Z,99.90
2018-05-03T01:14:59.874Z,99.90
2018-05-03T01:17:27.744Z,99.90
2018-05-03T01:19:55.606Z,99.90
2018-05-03T01:22:23.475Z,99.90
2018-05-03T01:24:51.443Z,99.90
2018-05-03T01:27:19.408Z,99.90
2018-05-03T01:29:47.280Z,99.90
2018-05-03T01:32:15.143Z,99.90
2018-05-03T01:34:43.112Z,99.90
2018-05-03T01:37:10.978Z,99.90
2018-05-03T01:39:38.910Z,99.90
2018-05-03T01:42:06.827Z,99.90
2018-05-03T01:44:34.780Z,99.90
2018-05-03T01:47:02.748Z,99.90
2018-05-03T01:49:30.615Z,99.90
2018-05-03T01:51:58.479Z,99.90
2018-05-03T01:54:26.351Z,99.90
2018-05-03T01:56:54.213Z,99.90
2018-05-03T01:59:22.077Z,99.90
2018-05-03T02:01:49.947Z,99.90
2018-05-03T02:04:17.814Z,99.90
2018-05-03T02:06:45.677Z,99.90
2018-05-03T02:09:14.363Z,99.90
2018-05-03T02:11:42.230Z,99.90
2018-05-03T02:14:10.131Z,99.90
2018-05-03T02:16:38.780Z,99.90
2018-05-03T02:19:06.649Z,99.90
2018-05-03T02:21:34.514Z,99.90
2018-05-03T02:24:02.355Z,99.90
2018-05-03T02:26:30.201Z,99.90
2018-05-03T02:28:58.110Z,99.90
2018-05-03T02:31:26.079Z,99.90
2018-05-03T02:33:53.946Z,99.90
2018-05-03T02:36:21.914Z,99.90
2018-05-03T02:38:49.884Z,99.90
2018-05-03T02:41:17.750Z,99.90
2018-05-03T02:43:45.728Z,99.90
2018-05-03T02:46:13.686Z,99.90
2018-05-03T02:48:41.554Z,99.90
2018-05-03T02:51:09.417Z,99.90
2018-05-03T02:53:37.287Z,99.90
2018-05-03T02:56:06.793Z,99.90
2018-05-03T02:58:46.535Z,99.90
2018-05-03T03:01:32.119Z,99.90
2018-05-03T03:04:29.889Z,99.90
2018-05-03T03:07:15.462Z,99.90
2018-05-03T03:10:09.851Z,99.90
2018-05-03T03:16:07.638Z,99.90
2018-05-03T03:18:53.116Z,99.90
2018-05-03T03:21:38.595Z,99.90
2018-05-03T03:24:33.905Z,99.90
2018-05-03T03:27:19.592Z,99.90
2018-05-03T03:33:26.387Z,99.90
2018-05-03T03:36:06.135Z,99.90
2018-05-03T03:38:45.774Z,99.90
2018-05-03T03:41:25.517Z,99.90
2018-05-03T03:44:05.262Z,99.90
2018-05-03T03:46:33.140Z,99.90
2018-05-03T03:49:00.994Z,99.90
2018-05-03T03:51:28.860Z,99.90
2018-05-03T03:53:56.831Z,99.90
2018-05-03T03:56:24.695Z,99.90
2018-05-03T03:58:52.562Z,99.90
2018-05-03T04:01:20.426Z,99.90
2018-05-03T04:03:48.397Z,99.90
2018-05-03T04:06:16.268Z,99.90
2018-05-03T04:08:44.133Z,99.90
2018-05-03T04:11:12.100Z,99.90
2018-05-03T04:13:39.961Z,99.90
2018-05-03T04:16:07.795Z,99.90
2018-05-03T04:18:47.695Z,99.90
2018-05-03T04:21:27.421Z,99.90
2018-05-03T04:24:09.012Z,99.90
2018-05-03T04:26:36.978Z,99.90
2018-05-03T04:29:04.908Z,99.90
2018-05-03T04:31:32.814Z,99.90
2018-05-03T04:34:00.884Z,99.90
2018-05-03T04:36:28.753Z,99.90
2018-05-03T04:38:56.616Z,99.90
2018-05-03T04:41:24.696Z,99.90
2018-05-03T04:43:52.552Z,99.90
2018-05-03T04:46:20.419Z,99.90
2018-05-03T04:48:48.287Z,99.90
2018-05-03T04:51:16.252Z,99.90
2018-05-03T04:53:44.178Z,99.90
2018-05-03T04:56:12.906Z,99.90
2018-05-03T04:58:53.144Z,99.90
2018-05-03T05:01:46.777Z,99.90
2018-05-03T05:04:15.417Z,99.90
2018-05-03T05:06:43.283Z,99.90
2018-05-03T05:09:11.149Z,99.90
2018-05-03T05:11:39.119Z,99.90
2018-05-03T05:14:07.089Z,99.90
2018-05-03T05:16:35.218Z,99.90
2018-05-03T05:19:02.998Z,99.90
2018-05-03T05:21:30.889Z,99.90
2018-05-03T05:23:58.757Z,99.90
2018-05-03T05:26:26.637Z,99.90
2018-05-03T05:28:54.399Z,99.90
2018-05-03T05:31:22.149Z,99.90
2018-05-03T05:33:50.018Z,99.90
2018-05-03T05:36:18.128Z,99.90
2018-05-03T05:38:46.866Z,99.90
2018-05-03T05:41:14.636Z,99.90
2018-05-03T05:43:42.504Z,99.90
2018-05-03T05:46:10.368Z,99.90
2018-05-03T05:48:38.235Z,99.90
2018-05-03T05:51:06.300Z,99.90
2018-05-03T05:53:34.172Z,99.90
2018-05-03T05:56:02.144Z,99.90
2018-05-03T05:58:30.109Z,99.90
2018-05-03T06:00:57.986Z,99.90
2018-05-03T06:03:25.949Z,99.90
2018-05-03T06:05:53.816Z,99.90
2018-05-03T06:08:21.676Z,99.90
2018-05-03T06:10:49.547Z,99.90
2018-05-03T06:13:17.416Z,99.90
2018-05-03T06:15:45.378Z,99.90
2018-05-03T06:18:13.213Z,99.90
2018-05-03T06:20:41.113Z,99.90
2018-05-03T06:23:09.077Z,99.90
2018-05-03T06:25:36.944Z,99.90
2018-05-03T06:28:04.914Z,99.90
2018-05-03T06:30:32.905Z,99.90
2018-05-03T06:33:00.956Z,99.90
2018-05-03T06:35:28.823Z,99.90
2018-05-03T06:37:56.900Z,99.90
2018-05-03T06:40:24.754Z,99.90
2018-05-03T06:42:52.814Z,99.90
2018-05-03T06:45:20.793Z,99.90
2018-05-03T06:47:48.663Z,99.90
2018-05-03T06:50:16.731Z,99.90
2018-05-03T06:52:44.701Z,99.90
2018-05-03T06:55:12.671Z,99.90
2018-05-03T06:57:40.537Z,99.90
2018-05-03T07:00:08.509Z,99.90
2018-05-03T07:02:36.477Z,99.90
2018-05-03T07:05:04.752Z,99.90
2018-05-03T07:07:32.730Z,99.90
2018-05-03T07:10:00.737Z,99.90
2018-05-03T07:12:28.669Z,99.90
2018-05-03T07:14:56.526Z,99.90
2018-05-03T07:17:24.388Z,99.90
2018-05-03T07:19:53.032Z,99.90
2018-05-03T07:22:21.051Z,99.90
2018-05-03T07:24:50.543Z,99.90
2018-05-03T07:27:18.523Z,99.90
2018-05-03T07:29:46.385Z,99.90
2018-05-03T07:32:14.559Z,99.90
2018-05-03T07:34:42.423Z,99.90
2018-05-03T07:37:10.494Z,99.90
2018-05-03T07:39:39.444Z,99.90
2018-05-03T07:42:07.463Z,99.90
2018-05-03T07:44:35.323Z,99.90
2018-05-03T07:47:03.184Z,99.90
2018-05-03T07:49:31.049Z,99.90
2018-05-03T07:51:58.917Z,99.90
2018-05-03T07:54:26.783Z,99.90
2018-05-03T07:56:54.753Z,99.90
2018-05-03T07:59:22.624Z,99.90
2018-05-03T08:01:51.424Z,99.90
2018-05-03T08:04:19.473Z,99.90
2018-05-03T08:06:47.342Z,99.90
2018-05-03T08:09:15.308Z,99.90
2018-05-03T08:11:43.278Z,99.90
2018-05-03T08:14:11.348Z,99.90
2018-05-03T08:16:39.424Z,99.90
2018-05-03T08:19:07.390Z,99.90
2018-05-03T08:21:35.355Z,99.90
2018-05-03T08:24:03.405Z,99.90
2018-05-03T08:26:31.293Z,99.90
2018-05-03T08:28:59.158Z,99.90
2018-05-03T08:31:27.029Z,99.90
2018-05-03T08:33:54.919Z,99.90
2018-05-03T08:36:23.535Z,99.90
2018-05-03T08:38:52.262Z,99.90
2018-05-03T08:41:20.135Z,99.90
2018-05-03T08:43:48.098Z,99.90
2018-05-03T08:46:16.785Z,99.90
2018-05-03T08:48:44.650Z,99.90
2018-05-03T08:51:12.480Z,99.90
2018-05-03T08:53:40.594Z,99.90
2018-05-03T08:56:09.271Z,99.90
2018-05-03T08:58:37.200Z,99.90
2018-05-03T09:01:05.211Z,99.90
2018-05-03T09:03:33.030Z,99.90
2018-05-03T09:06:00.939Z,99.90
2018-05-03T09:08:28.908Z,99.90
2018-05-03T09:10:56.777Z,99.90
2018-05-03T09:13:24.640Z,99.90
2018-05-03T09:15:52.571Z,99.90
2018-05-03T09:18:20.346Z,99.90
2018-05-03T09:20:48.240Z,99.90
2018-05-03T09:23:16.207Z,99.90
2018-05-03T09:25:44.384Z,99.90
2018-05-03T09:28:12.351Z,99.90
2018-05-03T09:30:40.328Z,99.90
2018-05-03T09:33:08.391Z,99.90
2018-05-03T09:35:36.259Z,99.90
2018-05-03T09:38:04.119Z,99.90
2018-05-03T09:40:32.092Z,99.90
2018-05-03T09:43:00.018Z,99.90
2018-05-03T09:45:28.028Z,99.90
2018-05-03T09:47:55.994Z,99.90
2018-05-03T09:50:23.861Z,99.90
2018-05-03T09:52:51.682Z,99.90
2018-05-03T09:55:19.697Z,99.90
2018-05-03T09:57:47.561Z,99.90
2018-05-03T10:00:15.429Z,99.90
2018-05-03T10:02:43.397Z,99.90
2018-05-03T10:05:11.222Z,99.90
2018-05-03T10:07:39.130Z,99.90
2018-05-03T10:10:06.994Z,99.90
2018-05-03T10:12:34.861Z,99.90
2018-05-03T10:15:02.934Z,99.90
2018-05-03T10:17:30.901Z,99.90
2018-05-03T10:19:58.873Z,99.90
2018-05-03T10:22:26.735Z,99.90
2018-05-03T10:24:54.600Z,99.90
2018-05-03T10:27:22.466Z,99.90
2018-05-03T10:29:50.343Z,99.90
2018-05-03T10:32:18.300Z,99.90
2018-05-03T10:34:46.268Z,99.90
2018-05-03T10:37:14.140Z,99.90
2018-05-03T10:39:42.001Z,99.90
2018-05-03T10:42:09.942Z,99.90
2018-05-03T10:44:37.837Z,99.90
2018-05-03T10:47:05.811Z,99.90
2018-05-03T10:49:33.673Z,99.90
2018-05-03T10:52:01.539Z,99.90
2018-05-03T10:54:29.408Z,99.90
2018-05-03T10:56:57.280Z,99.90
2018-05-03T10:59:25.137Z,99.90
2018-05-03T11:01:53.103Z,99.90
2018-05-03T11:04:21.032Z,99.90
2018-05-03T11:06:48.927Z,98.50
2018-05-03T11:09:16.803Z,96.70
2018-05-03T11:11:44.628Z,95.30
2018-05-03T11:14:12.652Z,95.40
2018-05-03T11:16:40.679Z,95.10
2018-05-03T11:19:08.539Z,94.70
2018-05-03T11:21:36.444Z,95.90
2018-05-03T11:24:04.237Z,95.90
2018-05-03T11:26:32.890Z,94.30
2018-05-03T11:29:00.861Z,94.30
2018-05-03T11:31:28.814Z,94.20
2018-05-03T11:33:56.695Z,94.80
2018-05-03T11:36:24.635Z,95.90
2018-05-03T11:38:52.535Z,95.70
2018-05-03T11:41:20.395Z,95.90
2018-05-03T11:43:48.272Z,95.10
2018-05-03T11:46:16.093Z,94.90
2018-05-03T11:48:44.054Z,95.10
2018-05-03T11:51:12.080Z,95.00
2018-05-03T11:53:40.851Z,95.20
2018-05-03T11:56:08.717Z,95.10
2018-05-03T11:58:36.604Z,95.20
2018-05-03T12:01:05.174Z,92.00
2018-05-03T12:03:33.245Z,92.00
2018-05-03T12:06:01.233Z,91.60
2018-05-03T12:08:29.890Z,92.60
2018-05-03T12:10:57.861Z,92.60
2018-05-03T12:13:25.827Z,92.60
2018-05-03T12:15:53.693Z,93.10
2018-05-03T12:18:21.665Z,92.40
2018-05-03T12:20:49.528Z,92.20
2018-05-03T12:23:17.398Z,92.10
2018-05-03T12:25:45.262Z,91.60
2018-05-03T12:28:13.082Z,92.30
2018-05-03T12:30:40.993Z,92.70
2018-05-03T12:33:08.860Z,92.90
2018-05-03T12:35:36.726Z,92.70
2018-05-03T12:38:04.590Z,92.80
2018-05-03T12:40:32.459Z,92.90
2018-05-03T12:43:00.434Z,93.10
2018-05-03T12:45:28.306Z,93.00
2018-05-03T12:47:56.272Z,93.70
2018-05-03T12:50:24.230Z,93.50
2018-05-03T12:52:52.096Z,93.00
2018-05-03T12:55:19.965Z,92.40
2018-05-03T12:57:47.836Z,91.90
2018-05-03T13:00:15.796Z,91.90
2018-05-03T13:02:43.619Z,91.80
2018-05-03T13:05:11.516Z,92.10
2018-05-03T13:07:39.504Z,91.80
2018-05-03T13:10:07.473Z,91.70
2018-05-03T13:12:35.349Z,92.20
2018-05-03T13:15:04.016Z,92.10
2018-05-03T13:17:31.894Z,92.10
2018-05-03T13:19:59.855Z,92.20
2018-05-03T13:22:27.922Z,92.00
2018-05-03T13:24:55.764Z,92.30
2018-05-03T13:27:23.653Z,92.50
2018-05-03T13:29:51.552Z,93.10
2018-05-03T13:32:20.310Z,93.20
2018-05-03T13:34:48.253Z,93.10
2018-05-03T13:37:16.142Z,93.60
2018-05-03T13:39:44.042Z,93.70
2018-05-03T13:42:12.694Z,92.70
2018-05-03T13:44:40.667Z,92.40
2018-05-03T13:47:08.633Z,91.80
2018-05-03T13:49:36.516Z,91.90
2018-05-03T13:52:04.446Z,92.00
2018-05-03T13:54:32.332Z,92.40
2018-05-03T13:57:00.219Z,92.00
2018-05-03T13:59:28.270Z,91.80
2018-05-03T14:01:56.340Z,91.60
2018-05-03T14:04:24.516Z,92.10
2018-05-03T14:06:52.420Z,92.30
2018-05-03T14:09:20.332Z,92.50
2018-05-03T14:11:48.317Z,92.60
2018-05-03T14:14:16.250Z,92.70
2018-05-03T14:16:44.255Z,92.90
2018-05-03T14:19:12.277Z,92.40
2018-05-03T14:21:40.395Z,92.00
2018-05-03T14:24:08.363Z,92.20
2018-05-03T14:26:36.235Z,92.50
2018-05-03T14:29:04.208Z,93.00
2018-05-03T14:31:32.049Z,92.90
2018-05-03T14:33:59.882Z,93.00
2018-05-03T14:36:27.814Z,93.30
2018-05-03T14:38:55.706Z,93.70
2018-05-03T14:41:24.396Z,92.30
2018-05-03T14:43:52.216Z,92.30
2018-05-03T14:46:20.102Z,92.70
2018-05-03T14:48:48.072Z,92.70
2018-05-03T14:51:16.018Z,93.10
2018-05-03T14:53:43.883Z,93.70
2018-05-03T14:56:11.913Z,93.80
2018-05-03T14:58:40.055Z,94.30
2018-05-03T15:01:08.852Z,94.30
2018-05-03T15:03:37.704Z,94.70
2018-05-03T15:06:05.571Z,94.80
2018-05-03T15:08:33.345Z,95.10
2018-05-03T15:11:01.202Z,95.40
2018-05-03T15:13:29.168Z,95.40
2018-05-03T15:15:57.116Z,95.40
2018-05-03T15:18:25.076Z,95.50
2018-05-03T15:20:53.074Z,95.90
2018-05-03T15:23:20.922Z,96.10
2018-05-03T15:25:48.811Z,96.40
2018-05-03T15:28:16.881Z,96.40
2018-05-03T15:30:44.741Z,96.30
2018-05-03T15:33:12.609Z,95.60
2018-05-03T15:35:40.577Z,96.10
2018-05-03T15:38:08.454Z,96.00
2018-05-03T15:40:36.451Z,95.90
2018-05-03T15:43:05.096Z,97.10
2018-05-03T15:45:32.975Z,97.10
2018-05-03T15:48:01.650Z,97.90
2018-05-03T15:50:29.518Z,97.90
2018-05-03T15:52:57.482Z,98.20
2018-05-03T15:55:25.457Z,97.80
2018-05-03T15:57:53.319Z,98.50
2018-05-03T16:00:21.290Z,98.80
2018-05-03T16:02:49.470Z,98.90
2018-05-03T16:05:17.530Z,99.30
2018-05-03T16:07:45.399Z,98.50
2018-05-03T16:10:13.472Z,98.40
2018-05-03T16:12:41.436Z,98.40
2018-05-03T16:15:09.306Z,98.20
2018-05-03T16:17:38.711Z,97.80
2018-05-03T16:20:06.676Z,97.80
2018-05-03T16:22:34.537Z,98.00
2018-05-03T16:25:02.407Z,97.90
2018-05-03T16:27:30.269Z,98.30
2018-05-03T16:29:58.313Z,98.70
2018-05-03T16:32:26.212Z,98.20
2018-05-03T16:34:54.038Z,98.10
2018-05-03T16:37:21.953Z,98.40
2018-05-03T16:39:49.862Z,98.40
2018-05-03T16:42:17.773Z,98.40
2018-05-03T16:44:45.747Z,98.30
2018-05-03T16:47:13.712Z,98.50
2018-05-03T16:49:41.679Z,98.70
2018-05-03T16:52:09.551Z,98.90
2018-05-03T16:54:37.471Z,99.10
2018-05-03T16:57:05.382Z,99.00
2018-05-03T16:59:33.247Z,99.20
2018-05-03T17:02:01.216Z,99.20
2018-05-03T17:04:29.159Z,99.00
2018-05-03T17:06:57.156Z,99.10
2018-05-03T17:09:25.017Z,99.00
2018-05-03T17:11:53.071Z,99.00
2018-05-03T17:14:20.957Z,99.00
2018-05-03T17:16:49.038Z,99.30
2018-05-03T17:19:18.439Z,99.60
2018-05-03T17:21:46.909Z,99.60
2018-05-03T17:24:14.881Z,99.80
2018-05-03T17:26:42.846Z,99.80
2018-05-03T17:29:10.732Z,99.80
2018-05-03T17:31:38.790Z,99.80
2018-05-03T17:34:06.758Z,99.80
2018-05-03T17:36:34.644Z,99.90
2018-05-03T17:39:03.677Z,99.90
2018-05-03T17:41:31.696Z,99.90
2018-05-03T17:43:59.548Z,99.90
2018-05-03T17:46:27.412Z,99.90
2018-05-03T17:48:55.280Z,99.90
2018-05-03T17:51:23.159Z,99.90
2018-05-03T17:53:51.338Z,99.90
2018-05-03T17:56:19.194Z,99.90
2018-05-03T17:58:47.804Z,99.90
2018-05-03T18:01:15.702Z,99.90
2018-05-03T18:03:43.567Z,99.90
2018-05-03T18:06:11.437Z,99.90
2018-05-03T18:08:39.404Z,99.90
2018-05-03T18:11:07.270Z,99.90
2018-05-03T18:13:35.325Z,99.90
2018-05-03T18:16:03.215Z,99.90
2018-05-03T18:18:31.031Z,99.90
2018-05-03T18:20:58.938Z,99.90
2018-05-03T18:23:26.898Z,99.90
2018-05-03T18:25:54.893Z,99.90
2018-05-03T18:28:22.741Z,99.90
2018-05-03T18:30:50.609Z,99.90
2018-05-03T18:33:18.546Z,99.90
2018-05-03T18:35:46.413Z,99.90
2018-05-03T18:38:14.312Z,99.90
2018-05-03T18:40:42.178Z,99.90
2018-05-03T18:43:10.037Z,99.90
2018-05-03T18:45:37.906Z,99.90
2018-05-03T18:48:05.738Z,99.90
2018-05-03T18:50:33.639Z,99.90
2018-05-03T18:53:01.478Z,99.90
2018-05-03T18:55:29.276Z,99.90
2018-05-03T18:57:57.141Z,99.90
2018-05-03T19:00:25.207Z,99.90
2018-05-03T19:02:53.069Z,99.90
2018-05-03T19:05:20.937Z,99.90
2018-05-03T19:07:48.802Z,99.90
2018-05-03T19:10:16.679Z,99.90
2018-05-03T19:12:44.643Z,99.90
2018-05-03T19:15:12.661Z,99.90
2018-05-03T19:17:40.578Z,99.90
2018-05-03T19:20:08.450Z,99.90
2018-05-03T19:22:36.316Z,99.90
2018-05-03T19:25:04.285Z,99.90
2018-05-03T19:27:32.143Z,99.90
2018-05-03T19:30:00.110Z,99.90
2018-05-03T19:32:27.894Z,99.90
2018-05-03T19:34:55.678Z,99.90
2018-05-03T19:37:24.218Z,99.90
2018-05-03T19:39:52.807Z,99.90
2018-05-03T19:42:20.724Z,99.90
2018-05-03T19:44:48.642Z,99.90
2018-05-03T19:47:16.606Z,99.90
2018-05-03T19:49:44.410Z,99.90
2018-05-03T19:52:13.156Z,99.90
2018-05-03T19:54:41.230Z,99.90
2018-05-03T19:57:09.458Z,99.90
2018-05-03T19:59:37.502Z,99.90
2018-05-03T20:02:06.781Z,99.90
2018-05-03T20:04:36.788Z,99.90
2018-05-03T20:07:04.961Z,99.90
2018-05-03T20:09:33.138Z,99.90
2018-05-03T20:12:01.209Z,99.90
2018-05-03T20:14:29.149Z,99.90
2018-05-03T20:16:57.216Z,99.90
2018-05-03T20:19:24.970Z,99.90
2018-05-03T20:21:52.778Z,99.90
2018-05-03T20:24:20.647Z,99.90
2018-05-03T20:26:48.608Z,99.90
2018-05-03T20:29:16.484Z,99.90
2018-05-03T20:31:44.352Z,99.90
2018-05-03T20:34:12.311Z,99.90
2018-05-03T20:36:40.277Z,99.90
2018-05-03T20:39:08.143Z,99.90
2018-05-03T20:41:35.965Z,99.90
2018-05-03T20:44:03.857Z,99.90
2018-05-03T20:46:31.844Z,99.90
2018-05-03T20:48:59.785Z,99.90
2018-05-03T20:51:27.695Z,99.90
2018-05-03T20:53:55.620Z,99.90
2018-05-03T20:56:23.511Z,99.90
2018-05-03T20:58:51.349Z,99.90
2018-05-03T21:01:19.249Z,99.90
2018-05-03T21:03:47.117Z,99.90
2018-05-03T21:06:14.951Z,99.90
2018-05-03T21:08:42.848Z,99.90
2018-05-03T21:11:10.721Z,99.90
2018-05-03T21:13:38.582Z,99.90
2018-05-03T21:16:06.447Z,99.90
2018-05-03T21:18:34.418Z,99.90
2018-05-03T21:21:02.388Z,99.90
2018-05-03T21:23:30.248Z,99.90
2018-05-03T21:25:58.115Z,99.90
2018-05-03T21:28:25.990Z,99.90
2018-05-03T21:30:53.849Z,99.90
2018-05-03T21:33:21.713Z,99.90
2018-05-03T21:35:49.582Z,99.90
2018-05-03T21:38:17.448Z,99.90
2018-05-03T21:40:45.316Z,99.90
2018-05-03T21:43:13.387Z,99.90
2018-05-03T21:45:42.171Z,99.90
2018-05-03T21:48:10.093Z,99.90
2018-05-03T21:50:38.005Z,99.90
2018-05-03T21:53:06.116Z,99.90
2018-05-03T21:55:34.873Z,99.90
2018-05-03T21:58:02.696Z,99.90
2018-05-03T22:00:30.595Z,99.90
2018-05-03T22:02:58.676Z,99.90
2018-05-03T22:05:26.534Z,99.90
2018-05-03T22:07:54.415Z,99.90
2018-05-03T22:10:23.095Z,99.90
2018-05-03T22:12:51.021Z,99.90
2018-05-03T22:15:18.927Z,99.90
2018-05-03T22:17:46.853Z,99.90
2018-05-03T22:20:14.867Z,99.90
2018-05-03T22:22:43.061Z,99.90
2018-05-03T22:25:11.719Z,99.90
2018-05-03T22:27:39.584Z,99.90
2018-05-03T22:30:07.552Z,99.90
2018-05-03T22:32:35.417Z,99.90
2018-05-03T22:35:03.400Z,99.90
2018-05-03T22:37:31.458Z,99.90
2018-05-03T22:39:59.427Z,99.90
2018-05-03T22:42:27.247Z,99.90
2018-05-03T22:44:55.164Z,99.90
2018-05-03T22:47:23.023Z,99.90
2018-05-03T22:49:51.007Z,99.90
2018-05-03T22:52:19.020Z,99.90
2018-05-03T22:54:47.058Z,99.90
2018-05-03T22:57:15.832Z,99.90
2018-05-03T22:59:43.795Z,99.90
2018-05-03T23:02:11.926Z,99.90
2018-05-03T23:04:40.044Z,99.90
2018-05-03T23:07:07.991Z,99.90
2018-05-03T23:09:35.880Z,99.90
2018-05-03T23:12:03.837Z,99.90
2018-05-03T23:14:31.904Z,99.90
2018-05-03T23:16:59.902Z,99.90
2018-05-03T23:19:28.791Z,99.90
2018-05-03T23:21:57.576Z,99.90
2018-05-03T23:24:26.554Z,99.90
2018-05-03T23:26:54.635Z,99.90
2018-05-03T23:29:22.685Z,99.90
2018-05-03T23:31:50.680Z,99.90
2018-05-03T23:34:19.442Z,99.90
2018-05-03T23:36:47.409Z,99.90
2018-05-03T23:39:15.384Z,99.90
2018-05-03T23:41:43.446Z,99.90
2018-05-03T23:44:11.423Z,99.90
2018-05-03T23:46:39.489Z,99.90
2018-05-03T23:49:07.328Z,99.90
2018-05-03T23:51:35.230Z,99.90
2018-05-03T23:54:03.201Z,99.90
2018-05-03T23:56:31.057Z,99.90
2018-05-03T23:58:58.936Z,99.90
